weather.gov     
National Weather Service

Terminal Aerodrome Forecast
NWS Homepage
This page is being discontinued on March 12, 2014.
The same data is available at this site. Please update your bookmarks.
Thank you, and we apologize for the inconvenience.
Please send an email to SR-SRH.Webmaster@noaa.gov with any concerns.


Current Version
Previous Version:    01  02  03  04  05  06  07  08  09  10  11  12  13  14  15  16  17  18  19  20  21  22  23  24  25  26  27  28  29  30  
   31  32  33  34  35  36  37  
[Printable]
291
FTUS41 KRNK 280210 AAA
TAFLWB
TAF AMD
KLWB 280210Z 2802/2824 25007KT P6SM SCT030 OVC050
      TEMPO 2804/2806 3SM -TSRA BR BKN017CB
     FM280600 27010G16KT 4SM -SHRA BR BKN017 OVC027
     FM281000 27007KT P6SM VCSH OVC017
     FM281400 27012G20KT P6SM OVC025=


291
FTUS41 KRNK 280210 AAA
TAFLWB
TAF AMD
KLWB 280210Z 2802/2824 25007KT P6SM SCT030 OVC050
      TEMPO 2804/2806 3SM -TSRA BR BKN017CB
     FM280600 27010G16KT 4SM -SHRA BR BKN017 OVC027
     FM281000 27007KT P6SM VCSH OVC017
     FM281400 27012G20KT P6SM OVC025=




U.S. Dept. of Commerce
NOAA National Weather Service
1325 East West Highway
Silver Spring, MD 20910
E-mail: w-nws.webmaster@noaa.gov
Page last modified: May 16, 2007
NATIONAL WEATHER SERVICE: for Safety, for Work, for Fun - FOR LIFE